createdAt,value
2023-04-02T00:01:48.711Z,0.50
2023-04-02T00:04:22.479Z,1.17
2023-04-02T00:06:54.574Z,0.50
2023-04-02T00:09:40.847Z,0.60
2023-04-02T00:12:17.051Z,0.50
2023-04-02T00:14:51.483Z,0.50
2023-04-02T00:17:20.794Z,0.40
2023-04-02T00:19:51.994Z,1.90
2023-04-02T00:22:23.415Z,5.70
2023-04-02T00:24:52.686Z,0.70
2023-04-02T00:27:21.202Z,0.70
2023-04-02T00:29:50.244Z,0.90
2023-04-02T00:32:56.624Z,0.70
2023-04-02T00:35:27.153Z,1.13
2023-04-02T00:37:57.533Z,0.43
2023-04-02T00:40:27.298Z,0.40
2023-04-02T00:42:56.316Z,0.50
2023-04-02T00:45:28.811Z,0.50
2023-04-02T00:47:58.843Z,0.80
2023-04-02T00:50:29.822Z,0.50
2023-04-02T00:53:00.605Z,0.50
2023-04-02T00:55:33.069Z,0.43
2023-04-02T00:58:03.018Z,0.40
2023-04-02T01:00:33.396Z,0.50
2023-04-02T01:03:28.935Z,0.70
2023-04-02T01:06:01.624Z,0.40
2023-04-02T01:08:35.953Z,0.50
2023-04-02T01:11:05.925Z,0.40
2023-04-02T01:13:38.564Z,0.40
2023-04-02T01:16:11.630Z,0.50
2023-04-02T01:18:50.545Z,0.70
2023-04-02T01:21:33.229Z,1.27
2023-04-02T01:24:05.514Z,0.50
2023-04-02T01:26:41.457Z,0.60
2023-04-02T01:29:14.034Z,0.80
2023-04-02T01:31:43.960Z,0.60
2023-04-02T01:34:14.776Z,0.50
2023-04-02T01:36:46.283Z,0.50
2023-04-02T01:39:21.666Z,0.63
2023-04-02T01:41:51.043Z,0.53
2023-04-02T01:44:26.059Z,0.40
2023-04-02T01:46:55.524Z,3.30
2023-04-02T01:49:27.307Z,0.40
2023-04-02T01:51:57.411Z,0.50
2023-04-02T01:54:28.829Z,0.50
2023-04-02T01:56:58.156Z,1.17
2023-04-02T01:59:29.067Z,1.60
2023-04-02T02:02:01.744Z,0.50
2023-04-02T02:04:30.576Z,0.40
2023-04-02T02:07:00.866Z,0.50
2023-04-02T02:09:30.724Z,0.60
2023-04-02T02:11:59.429Z,0.77
2023-04-02T02:14:30.235Z,0.50
2023-04-02T02:17:01.994Z,0.50
2023-04-02T02:19:31.730Z,0.80
2023-04-02T02:22:05.049Z,0.50
2023-04-02T02:24:35.755Z,0.50
2023-04-02T02:27:09.391Z,0.50
2023-04-02T02:29:41.129Z,0.60
2023-04-02T02:32:11.306Z,0.40
2023-04-02T02:34:42.216Z,0.50
2023-04-02T02:37:14.720Z,0.40
2023-04-02T02:39:45.078Z,2.50
2023-04-02T02:42:16.120Z,0.60
2023-04-02T02:44:48.851Z,0.40
2023-04-02T02:47:18.904Z,0.50
2023-04-02T02:49:49.940Z,1.27
2023-04-02T02:52:19.137Z,0.80
2023-04-02T02:54:50.185Z,1.20
2023-04-02T02:57:21.802Z,0.50
2023-04-02T02:59:52.293Z,0.50
2023-04-02T03:02:21.125Z,0.60
2023-04-02T03:04:50.726Z,0.50
2023-04-02T03:07:20.536Z,0.40
2023-04-02T03:09:52.240Z,0.50
2023-04-02T03:12:30.318Z,0.40
2023-04-02T03:15:03.146Z,0.50
2023-04-02T03:17:33.625Z,0.50
2023-04-02T03:20:06.487Z,0.43
2023-04-02T03:22:37.685Z,0.63
2023-04-02T03:25:08.015Z,0.50
2023-04-02T03:27:39.265Z,0.50
2023-04-02T03:30:20.067Z,1.90
2023-04-02T03:32:49.178Z,0.70
2023-04-02T03:35:21.561Z,0.77
2023-04-02T03:37:52.239Z,0.50
2023-04-02T03:40:23.029Z,0.50
2023-04-02T03:42:54.551Z,0.43
2023-04-02T03:45:26.030Z,0.70
2023-04-02T03:47:56.188Z,0.70
2023-04-02T03:50:27.607Z,7.10
2023-04-02T03:52:56.045Z,0.50
2023-04-02T03:55:26.471Z,0.50
2023-04-02T03:57:57.633Z,0.60
2023-04-02T04:00:32.535Z,0.50
2023-04-02T04:03:05.052Z,3.27
2023-04-02T04:05:36.107Z,0.40
2023-04-02T04:08:06.825Z,1.03
2023-04-02T04:10:36.771Z,0.50
2023-04-02T04:13:07.507Z,2.00
2023-04-02T04:15:39.165Z,0.50
2023-04-02T04:18:12.672Z,0.50
2023-04-02T04:20:46.038Z,0.47
2023-04-02T04:23:19.906Z,0.50
2023-04-02T04:25:50.591Z,0.60
2023-04-02T04:28:24.166Z,2.10
2023-04-02T04:31:00.062Z,0.43
2023-04-02T04:33:34.614Z,2.50
2023-04-02T04:36:04.226Z,0.53
2023-04-02T04:38:34.756Z,1.20
2023-04-02T04:41:04.918Z,0.40
2023-04-02T04:43:40.303Z,0.50
2023-04-02T04:46:13.621Z,0.47
2023-04-02T04:48:48.086Z,0.50
2023-04-02T04:51:21.610Z,0.70
2023-04-02T04:53:51.690Z,0.50
2023-04-02T04:56:23.274Z,0.50
2023-04-02T04:58:53.828Z,0.60
2023-04-02T05:01:24.917Z,2.57
2023-04-02T05:03:57.261Z,0.40
2023-04-02T05:06:33.431Z,0.60
2023-04-02T05:09:06.006Z,0.50
2023-04-02T05:11:36.193Z,0.50
2023-04-02T05:14:07.571Z,0.60
2023-04-02T05:16:40.724Z,0.53
2023-04-02T05:19:10.814Z,0.70
2023-04-02T05:21:42.796Z,0.40
2023-04-02T05:24:27.653Z,0.50
2023-04-02T05:26:58.978Z,1.00
2023-04-02T05:29:30.919Z,2.53
2023-04-02T05:32:03.010Z,2.73
2023-04-02T05:34:33.608Z,2.53
2023-04-02T05:37:02.381Z,0.60
2023-04-02T05:39:32.628Z,0.50
2023-04-02T05:42:03.408Z,0.50
2023-04-02T05:44:32.756Z,0.77
2023-04-02T05:47:06.020Z,0.50
2023-04-02T05:49:37.133Z,0.50
2023-04-02T05:52:08.069Z,0.50
2023-04-02T05:54:40.245Z,0.50
2023-04-02T05:57:11.508Z,0.50
2023-04-02T05:59:41.642Z,1.17
2023-04-02T06:02:17.194Z,0.53
2023-04-02T06:04:48.627Z,0.70
2023-04-02T06:07:18.465Z,0.50
2023-04-02T06:09:49.503Z,0.50
2023-04-02T06:12:21.068Z,0.50
2023-04-02T06:14:49.506Z,0.63
2023-04-02T06:17:20.636Z,2.50
2023-04-02T06:19:49.748Z,0.60
2023-04-02T06:22:22.059Z,0.50
2023-04-02T06:24:53.211Z,0.50
2023-04-02T06:27:22.776Z,1.27
2023-04-02T06:29:53.082Z,1.07
2023-04-02T06:32:25.706Z,0.60
2023-04-02T06:34:54.536Z,2.67
2023-04-02T06:37:25.764Z,0.87
2023-04-02T06:39:54.223Z,0.50
2023-04-02T06:42:25.543Z,0.50
2023-04-02T06:44:54.166Z,0.40
2023-04-02T06:47:28.974Z,0.60
2023-04-02T06:50:00.295Z,0.60
2023-04-02T06:52:30.491Z,0.50
2023-04-02T06:54:59.458Z,0.50
2023-04-02T06:57:27.998Z,1.43
2023-04-02T07:00:16.810Z,0.50
2023-04-02T07:02:47.176Z,0.60
2023-04-02T07:05:16.197Z,0.50
2023-04-02T07:07:44.941Z,0.60
2023-04-02T07:10:13.775Z,0.50
2023-04-02T07:12:42.473Z,0.50
2023-04-02T07:15:13.266Z,1.00
2023-04-02T07:17:42.077Z,0.63
2023-04-02T07:20:22.276Z,0.50
2023-04-02T07:22:50.840Z,0.53
2023-04-02T07:25:19.195Z,1.07
2023-04-02T07:27:47.524Z,0.50
2023-04-02T07:30:16.193Z,0.50
2023-04-02T07:32:44.774Z,0.60
2023-04-02T07:35:16.075Z,2.63
2023-04-02T07:37:44.784Z,0.80
2023-04-02T07:40:18.315Z,0.47
2023-04-02T07:42:57.209Z,1.73
2023-04-02T07:45:26.006Z,0.50
2023-04-02T07:47:54.555Z,0.50
2023-04-02T07:50:24.939Z,0.60
2023-04-02T07:52:53.551Z,0.60
2023-04-02T07:55:24.345Z,0.50
2023-04-02T07:57:54.158Z,0.47
2023-04-02T08:00:23.063Z,0.50
2023-04-02T08:02:51.546Z,0.93
2023-04-02T08:05:20.917Z,0.77
2023-04-02T08:07:56.288Z,0.83
2023-04-02T08:10:26.318Z,0.50
2023-04-02T08:12:54.771Z,0.50
2023-04-02T08:15:24.359Z,2.00
2023-04-02T08:17:53.773Z,0.60
2023-04-02T08:20:23.390Z,0.60
2023-04-02T08:22:53.393Z,0.80
2023-04-02T08:25:23.617Z,0.60
2023-04-02T08:27:52.253Z,0.60
2023-04-02T08:30:20.936Z,0.60
2023-04-02T08:32:49.929Z,0.60
2023-04-02T08:35:18.688Z,0.70
2023-04-02T08:37:47.894Z,0.50
2023-04-02T08:40:23.477Z,1.17
2023-04-02T08:43:01.792Z,1.67
2023-04-02T08:45:36.690Z,0.60
2023-04-02T08:48:05.633Z,0.60
2023-04-02T08:50:38.023Z,2.97
2023-04-02T08:53:07.548Z,1.10
2023-04-02T08:55:39.871Z,1.30
2023-04-02T08:58:25.252Z,0.60
2023-04-02T09:00:55.715Z,2.70
2023-04-02T09:03:28.983Z,0.70
2023-04-02T09:05:58.044Z,1.80
2023-04-02T09:08:27.914Z,0.70
2023-04-02T09:11:00.520Z,0.57
2023-04-02T09:13:31.367Z,0.50
2023-04-02T09:16:03.369Z,0.60
2023-04-02T09:18:34.354Z,1.67
2023-04-02T09:21:05.008Z,0.50
2023-04-02T09:23:33.831Z,0.53
2023-04-02T09:26:04.472Z,1.53
2023-04-02T09:28:34.987Z,6.00
2023-04-02T09:31:07.260Z,1.37
2023-04-02T09:33:46.162Z,0.57
2023-04-02T09:39:37.509Z,0.80
2023-04-02T09:42:29.362Z,1.23
2023-04-02T09:45:14.034Z,0.80
2023-04-02T09:47:42.876Z,2.00
2023-04-02T09:50:27.691Z,0.60
2023-04-02T09:52:58.543Z,1.00
2023-04-02T09:55:30.872Z,0.90
2023-04-02T09:58:10.080Z,1.00
2023-04-02T10:03:26.866Z,0.60
2023-04-02T10:06:11.504Z,0.60
2023-04-02T10:08:41.596Z,2.37
2023-04-02T10:11:12.064Z,0.50
2023-04-02T10:13:45.759Z,0.63
2023-04-02T10:16:42.086Z,0.50
2023-04-02T10:19:16.095Z,0.60
2023-04-02T10:21:45.836Z,0.70
2023-04-02T10:24:15.568Z,0.57
2023-04-02T10:26:48.486Z,0.50
2023-04-02T10:29:30.408Z,1.60
2023-04-02T10:32:02.420Z,0.50
2023-04-02T10:34:37.296Z,1.20
2023-04-02T10:37:13.290Z,0.70
2023-04-02T10:39:43.228Z,1.83
2023-04-02T10:42:19.825Z,0.50
2023-04-02T10:44:51.825Z,0.60
2023-04-02T10:47:27.390Z,0.50
2023-04-02T10:50:04.194Z,1.53
2023-04-02T10:52:36.244Z,0.50
2023-04-02T10:55:06.113Z,0.60
2023-04-02T10:57:39.040Z,0.50
2023-04-02T11:00:17.059Z,0.50
2023-04-02T11:02:48.937Z,1.23
2023-04-02T11:05:22.065Z,1.00
2023-04-02T11:07:56.843Z,0.70
2023-04-02T11:10:26.021Z,0.60
2023-04-02T11:12:57.237Z,0.60
2023-04-02T11:15:26.077Z,0.60
2023-04-02T11:17:54.824Z,0.60
2023-04-02T11:20:38.276Z,0.80
2023-04-02T11:23:12.234Z,0.50
2023-04-02T11:25:41.370Z,1.27
2023-04-02T11:28:20.821Z,0.50
2023-04-02T11:30:49.706Z,2.70
2023-04-02T11:33:42.255Z,0.50
2023-04-02T11:36:27.566Z,0.60
2023-04-02T11:39:07.348Z,0.90
2023-04-02T11:42:01.977Z,0.70
2023-04-02T11:44:30.838Z,2.07
2023-04-02T11:47:18.754Z,0.80
2023-04-02T11:50:02.095Z,0.60
2023-04-02T11:52:36.557Z,1.30
2023-04-02T11:55:20.720Z,0.70
2023-04-02T11:58:05.654Z,0.50
2023-04-02T12:00:55.693Z,2.10
2023-04-02T12:03:34.039Z,0.60
2023-04-02T12:06:06.672Z,0.70
2023-04-02T12:08:54.353Z,0.60
2023-04-02T12:11:34.558Z,0.50
2023-04-02T12:14:04.086Z,1.53
2023-04-02T12:16:35.663Z,0.50
2023-04-02T12:19:04.590Z,0.60
2023-04-02T12:21:33.267Z,0.60
2023-04-02T12:24:02.238Z,0.50
2023-04-02T12:26:37.877Z,0.50
2023-04-02T12:29:26.609Z,1.70
2023-04-02T12:31:56.036Z,0.63
2023-04-02T12:34:26.388Z,0.70
2023-04-02T12:36:56.896Z,0.73
2023-04-02T12:39:28.082Z,0.53
2023-04-02T12:41:58.889Z,0.83
2023-04-02T12:44:28.693Z,0.60
2023-04-02T12:47:02.088Z,0.60
2023-04-02T12:49:35.850Z,0.60
2023-04-02T12:52:05.233Z,1.27
2023-04-02T12:54:37.772Z,1.07
2023-04-02T12:57:39.563Z,1.37
2023-04-02T13:00:27.202Z,0.57
2023-04-02T13:03:03.389Z,0.67
2023-04-02T13:05:36.965Z,0.87
2023-04-02T13:08:06.917Z,0.63
2023-04-02T13:10:35.699Z,0.70
2023-04-02T13:13:06.498Z,2.23
2023-04-02T13:15:37.119Z,0.80
2023-04-02T13:18:09.583Z,0.73
2023-04-02T13:20:39.185Z,0.50
2023-04-02T13:23:22.845Z,0.70
2023-04-02T13:25:51.694Z,0.60
2023-04-02T13:28:20.518Z,0.70
2023-04-02T13:30:49.232Z,1.77
2023-04-02T13:33:20.780Z,2.80
2023-04-02T13:35:49.617Z,0.70
2023-04-02T13:38:18.026Z,2.80
2023-04-02T13:40:46.430Z,0.80
2023-04-02T13:43:18.863Z,0.53
2023-04-02T13:45:53.942Z,0.87
2023-04-02T13:48:26.160Z,1.23
2023-04-02T13:50:54.879Z,1.40
2023-04-02T13:53:25.381Z,0.67
2023-04-02T13:55:54.094Z,1.00
2023-04-02T13:58:23.201Z,1.43
2023-04-02T14:00:51.917Z,1.00
2023-04-02T14:03:22.835Z,0.70
2023-04-02T14:05:58.800Z,1.13
2023-04-02T14:08:30.780Z,1.67
2023-04-02T14:11:06.370Z,1.17
2023-04-02T14:13:41.632Z,1.77
2023-04-02T14:16:16.009Z,1.57
2023-04-02T14:19:01.038Z,0.63
2023-04-02T14:21:44.738Z,1.10
2023-04-02T14:24:31.191Z,0.60
2023-04-02T14:27:12.219Z,0.80
2023-04-02T14:29:49.296Z,0.83
2023-04-02T14:32:29.609Z,0.50
2023-04-02T14:35:05.989Z,0.60
2023-04-02T14:37:45.414Z,0.50
2023-04-02T14:40:19.759Z,0.50
2023-04-02T14:42:55.251Z,0.70
2023-04-02T14:45:31.632Z,0.50
2023-04-02T14:48:02.877Z,0.50
2023-04-02T14:50:33.376Z,0.50
2023-04-02T14:53:08.211Z,0.50
2023-04-02T14:55:47.082Z,0.93
2023-04-02T14:58:18.931Z,0.50
2023-04-02T15:00:56.798Z,0.50
2023-04-02T15:03:26.809Z,0.50
2023-04-02T15:05:56.506Z,0.60
2023-04-02T15:08:32.343Z,3.23
2023-04-02T15:11:06.571Z,0.50
2023-04-02T15:13:38.852Z,0.50
2023-04-02T15:16:11.574Z,0.50
2023-04-02T15:18:40.712Z,0.50
2023-04-02T15:21:25.567Z,0.70
2023-04-02T15:23:58.920Z,0.50
2023-04-02T15:26:31.044Z,0.70
2023-04-02T15:29:03.562Z,0.60
2023-04-02T15:31:33.770Z,0.60
2023-04-02T15:34:10.373Z,2.70
2023-04-02T15:37:00.329Z,0.70
2023-04-02T15:39:38.137Z,0.50
2023-04-02T15:42:12.147Z,0.60
2023-04-02T15:44:44.280Z,0.70
2023-04-02T15:47:18.584Z,0.97
2023-04-02T15:49:53.385Z,0.73
2023-04-02T15:52:24.950Z,0.80
2023-04-02T15:55:01.896Z,0.60
2023-04-02T15:57:47.668Z,0.60
2023-04-02T16:00:26.725Z,0.60
2023-04-02T16:03:18.517Z,1.90
2023-04-02T16:05:55.298Z,0.77
2023-04-02T16:08:29.811Z,1.50
2023-04-02T16:11:12.286Z,1.40
2023-04-02T16:13:41.503Z,1.33
2023-04-02T16:16:12.347Z,1.13
2023-04-02T16:18:45.621Z,0.83
2023-04-02T16:21:17.025Z,1.10
2023-04-02T16:23:45.629Z,1.20
2023-04-02T16:26:34.897Z,1.40
2023-04-02T16:29:16.997Z,0.87
2023-04-02T16:31:48.912Z,1.43
2023-04-02T16:34:30.451Z,1.20
2023-04-02T16:37:05.627Z,1.00
2023-04-02T16:39:38.266Z,1.63
2023-04-02T16:42:10.503Z,1.20
2023-04-02T16:44:45.784Z,1.00
2023-04-02T16:47:20.616Z,1.23
2023-04-02T16:49:53.381Z,1.30
2023-04-02T16:52:29.193Z,1.20
2023-04-02T16:55:10.712Z,1.70
2023-04-02T16:57:44.765Z,2.00
2023-04-02T17:00:21.890Z,1.20
2023-04-02T17:02:56.545Z,1.83
2023-04-02T17:05:31.599Z,2.30
2023-04-02T17:08:06.803Z,1.93
2023-04-02T17:10:38.842Z,4.63
2023-04-02T17:13:17.657Z,1.67
2023-04-02T17:15:49.131Z,2.60
2023-04-02T17:18:19.839Z,3.37
2023-04-02T17:21:02.031Z,1.70
2023-04-02T17:23:31.702Z,2.27
2023-04-02T17:26:02.784Z,1.37
2023-04-02T17:28:36.731Z,2.30
2023-04-02T17:31:13.453Z,3.33
2023-04-02T17:33:42.100Z,2.17
2023-04-02T17:36:17.721Z,9.33
2023-04-02T17:38:49.289Z,2.00
2023-04-02T17:41:20.803Z,1.63
2023-04-02T17:43:51.569Z,1.83
2023-04-02T17:46:29.911Z,2.90
2023-04-02T17:49:01.950Z,4.43
2023-04-02T17:51:33.632Z,3.23
2023-04-02T17:54:06.568Z,3.03
2023-04-02T17:56:39.870Z,2.27
2023-04-02T17:59:17.184Z,2.17
2023-04-02T18:01:50.051Z,2.30
2023-04-02T18:04:28.273Z,3.10
2023-04-02T18:07:19.536Z,3.07
2023-04-02T18:09:49.219Z,5.47
2023-04-02T18:12:24.789Z,3.80
2023-04-02T18:14:59.418Z,12.60
2023-04-02T18:17:36.427Z,12.10
2023-04-02T18:20:10.581Z,8.07
2023-04-02T18:22:43.435Z,5.60
2023-04-02T18:25:36.520Z,4.27
2023-04-02T18:28:22.426Z,11.47
2023-04-02T18:30:55.671Z,3.33
2023-04-02T18:33:31.900Z,3.80
2023-04-02T18:36:02.127Z,2.93
2023-04-02T18:38:33.566Z,4.10
2023-04-02T18:41:09.241Z,2.40
2023-04-02T18:43:49.535Z,2.47
2023-04-02T18:46:23.278Z,5.47
2023-04-02T18:48:57.792Z,3.07
2023-04-02T18:51:27.242Z,2.23
2023-04-02T18:54:01.598Z,4.93
2023-04-02T18:56:31.161Z,3.13
2023-04-02T18:59:03.668Z,3.30
2023-04-02T19:01:33.675Z,3.90
2023-04-02T19:04:06.321Z,4.03
2023-04-02T19:06:38.615Z,2.30
2023-04-02T19:09:09.750Z,3.23
2023-04-02T19:11:38.489Z,2.77
2023-04-02T19:14:14.968Z,4.53
2023-04-02T19:16:52.425Z,3.90
2023-04-02T19:19:23.504Z,5.73
2023-04-02T19:22:13.075Z,4.27
2023-04-02T19:24:48.290Z,3.43
2023-04-02T19:27:21.689Z,4.20
2023-04-02T19:29:55.854Z,4.73
2023-04-02T19:32:33.547Z,3.30
2023-04-02T19:35:06.410Z,4.77
2023-04-02T19:37:38.533Z,4.23
2023-04-02T19:40:19.321Z,3.23
2023-04-02T19:42:48.952Z,3.73
2023-04-02T19:45:23.318Z,3.00
2023-04-02T19:47:53.193Z,4.07
2023-04-02T19:50:23.393Z,3.00
2023-04-02T19:52:51.942Z,4.63
2023-04-02T19:55:20.419Z,5.10
2023-04-02T19:57:49.094Z,5.10
2023-04-02T20:00:24.646Z,4.17
2023-04-02T20:02:53.246Z,4.17
2023-04-02T20:05:23.535Z,5.37
2023-04-02T20:07:51.912Z,8.03
2023-04-02T20:10:23.306Z,2.33
2023-04-02T20:12:51.850Z,3.93
2023-04-02T20:15:21.465Z,3.57
2023-04-02T20:17:49.928Z,3.93
2023-04-02T20:20:18.771Z,3.87
2023-04-02T20:22:49.725Z,7.40
2023-04-02T20:25:18.384Z,3.87
2023-04-02T20:27:47.050Z,3.20
2023-04-02T20:30:15.991Z,3.67
2023-04-02T20:32:44.567Z,2.53
2023-04-02T20:35:12.921Z,4.83
2023-04-02T20:37:42.234Z,4.40
2023-04-02T20:40:13.247Z,5.00
2023-04-02T20:42:41.746Z,4.00
2023-04-02T20:45:11.047Z,2.53
2023-04-02T20:47:40.082Z,3.13
2023-04-02T20:50:08.968Z,3.77
2023-04-02T20:52:37.458Z,3.30
2023-04-02T20:55:06.272Z,6.37
2023-04-02T20:57:36.245Z,3.03
2023-04-02T21:00:06.183Z,4.77
2023-04-02T21:02:34.946Z,2.00
2023-04-02T21:05:04.154Z,4.07
2023-04-02T21:07:32.901Z,6.20
2023-04-02T21:10:01.843Z,3.40
2023-04-02T21:12:30.966Z,5.40
2023-04-02T21:15:02.822Z,5.00
2023-04-02T21:17:32.181Z,4.30
2023-04-02T21:20:00.700Z,4.40
2023-04-02T21:22:29.126Z,3.40
2023-04-02T21:24:57.806Z,3.13
2023-04-02T21:27:26.864Z,2.90
2023-04-02T21:29:56.466Z,2.77
2023-04-02T21:32:28.611Z,3.33
2023-04-02T21:35:00.216Z,4.70
2023-04-02T21:37:28.598Z,3.60
2023-04-02T21:39:57.241Z,3.77
2023-04-02T21:42:26.222Z,3.27
2023-04-02T21:44:56.174Z,4.20
2023-04-02T21:47:28.168Z,7.57
2023-04-02T21:49:56.681Z,4.27
2023-04-02T21:52:32.500Z,5.13
2023-04-02T21:55:01.074Z,5.80
2023-04-02T21:57:29.768Z,4.90
2023-04-02T21:59:58.198Z,4.27
2023-04-02T22:02:28.110Z,5.90
2023-04-02T22:04:56.606Z,6.53
2023-04-02T22:07:25.118Z,6.30
2023-04-02T22:09:53.600Z,3.10
2023-04-02T22:12:22.108Z,11.00
2023-04-02T22:14:50.716Z,4.60
2023-04-02T22:17:19.207Z,7.13
2023-04-02T22:19:48.965Z,6.40
2023-04-02T22:22:17.625Z,5.27
2023-04-02T22:24:48.072Z,5.13
2023-04-02T22:27:17.088Z,4.57
2023-04-02T22:29:45.337Z,4.70
2023-04-02T22:32:13.844Z,4.60
2023-04-02T22:34:48.275Z,4.03
2023-04-02T22:37:18.057Z,2.60
2023-04-02T22:39:46.746Z,6.50
2023-04-02T22:42:15.333Z,6.83
2023-04-02T22:44:44.002Z,3.20
2023-04-02T22:47:12.435Z,4.27
2023-04-02T22:49:41.045Z,4.73
2023-04-02T22:52:11.860Z,5.57
2023-04-02T22:54:43.871Z,4.77
2023-04-02T22:57:12.860Z,3.80
2023-04-02T22:59:41.406Z,4.93
2023-04-02T23:02:09.863Z,4.67
2023-04-02T23:04:38.269Z,7.77
2023-04-02T23:07:06.844Z,4.40
2023-04-02T23:09:36.800Z,4.27
2023-04-02T23:12:07.181Z,6.33
2023-04-02T23:14:36.172Z,5.90
2023-04-02T23:17:04.942Z,3.23
2023-04-02T23:19:33.495Z,5.77
2023-04-02T23:22:02.398Z,4.73
2023-04-02T23:24:30.867Z,3.60
2023-04-02T23:26:59.402Z,4.30
2023-04-02T23:29:29.710Z,6.27
2023-04-02T23:31:58.246Z,12.07
2023-04-02T23:34:26.601Z,3.87
2023-04-02T23:36:55.342Z,5.50
2023-04-02T23:39:24.271Z,4.03
2023-04-02T23:41:52.648Z,4.70
2023-04-02T23:44:20.974Z,3.00
2023-04-02T23:46:50.919Z,5.83
2023-04-02T23:49:19.588Z,4.07
2023-04-02T23:51:47.876Z,4.83
2023-04-02T23:54:16.452Z,4.17
2023-04-02T23:56:45.078Z,3.07
2023-04-02T23:59:13.776Z,6.57
